Time,TemperatureF,DewpointF,PressureIn,WindDirection,WindDirectionDegrees,WindSpeedMPH,WindSpeedGustMPH,Humidity,HourlyPrecipIn,Conditions,Clouds,dailyrainin,SolarRadiationWatts/m^2,SoftwareType,DateUTC
2013-07-21 00:02:00,54.0,51.0,-100.00,ENE,59,1.0,2.0,90,0.00,,,0.00,0.000000,,2013-07-21 05:02:00,
2013-07-21 00:32:00,51.0,49.0,-100.00,NE,53,0.0,2.0,94,0.00,,,0.00,0.000000,,2013-07-21 05:32:00,
2013-07-21 00:42:00,51.0,49.0,-100.00,NE,53,0.0,2.0,94,0.00,,,0.00,0.000000,,2013-07-21 05:42:00,
2013-07-21 00:52:00,51.0,49.0,-100.00,NE,53,0.0,2.0,94,0.00,,,0.00,0.000000,,2013-07-21 05:52:00,
2013-07-21 01:01:00,51.0,49.0,-100.00,NE,53,0.0,2.0,94,0.00,,,0.00,0.000000,,2013-07-21 06:01:00,
2013-07-21 01:32:00,50.0,49.0,-100.00,South,188,0.0,2.0,95,0.00,,,0.00,0.000000,,2013-07-21 06:32:00,
2013-07-21 01:43:00,50.0,49.0,-100.00,South,188,0.0,2.0,95,0.00,,,0.00,0.000000,,2013-07-21 06:43:00,
2013-07-21 01:53:00,50.0,49.0,-100.00,South,188,0.0,2.0,95,0.00,,,0.00,0.000000,,2013-07-21 06:53:00,
2013-07-21 02:01:00,50.0,49.0,-100.00,South,188,0.0,2.0,95,0.00,,,0.00,0.000000,,2013-07-21 07:01:00,
2013-07-21 02:32:00,49.0,48.0,-100.00,North,6,0.0,2.0,96,0.00,,,0.00,0.000000,,2013-07-21 07:32:00,
2013-07-21 02:43:00,49.0,48.0,-100.00,North,6,0.0,2.0,96,0.00,,,0.00,0.000000,,2013-07-21 07:43:00,
2013-07-21 02:53:00,49.0,48.0,-100.00,North,6,0.0,2.0,96,0.00,,,0.00,0.000000,,2013-07-21 07:53:00,
2013-07-21 03:01:00,49.0,48.0,-100.00,North,6,0.0,2.0,96,0.00,,,0.00,0.000000,,2013-07-21 08:01:00,
2013-07-21 03:33:00,50.0,48.0,-100.00,NE,46,2.0,4.0,94,0.00,,,0.00,0.000000,,2013-07-21 08:33:00,
2013-07-21 03:43:00,50.0,48.0,-100.00,NE,46,2.0,4.0,94,0.00,,,0.00,0.000000,,2013-07-21 08:43:00,
2013-07-21 03:52:00,50.0,48.0,-100.00,NE,46,2.0,4.0,94,0.00,,,0.00,0.000000,,2013-07-21 08:52:00,
2013-07-21 04:02:00,50.0,48.0,-100.00,NE,46,2.0,4.0,94,0.00,,,0.00,0.000000,,2013-07-21 09:02:00,
2013-07-21 04:32:00,54.0,53.0,-100.00,ENE,57,2.0,4.0,96,0.00,,,0.00,0.000000,,2013-07-21 09:32:00,
2013-07-21 04:42:00,54.0,53.0,-100.00,ENE,57,2.0,4.0,96,0.00,,,0.00,0.000000,,2013-07-21 09:42:00,
2013-07-21 04:52:00,54.0,53.0,-100.00,ENE,57,2.0,4.0,96,0.00,,,0.00,0.000000,,2013-07-21 09:52:00,
2013-07-21 05:02:00,54.0,53.0,-100.00,ENE,57,2.0,4.0,96,0.00,,,0.00,0.000000,,2013-07-21 10:02:00,
2013-07-21 05:32:00,56.0,54.0,-100.00,ENE,74,1.0,3.0,92,0.00,,,0.00,0.000000,,2013-07-21 10:32:00,
2013-07-21 05:43:00,56.0,54.0,-100.00,ENE,74,1.0,3.0,92,0.00,,,0.00,0.000000,,2013-07-21 10:43:00,
2013-07-21 05:52:00,56.0,54.0,-100.00,ENE,74,1.0,3.0,92,0.00,,,0.00,0.000000,,2013-07-21 10:52:00,
2013-07-21 06:02:00,56.0,54.0,-100.00,ENE,74,1.0,3.0,92,0.00,,,0.00,0.000000,,2013-07-21 11:02:00,
2013-07-21 06:33:00,57.0,55.0,-100.00,ESE,114,1.0,3.0,92,0.00,,,0.00,1.000000,,2013-07-21 11:33:00,
2013-07-21 06:43:00,57.0,55.0,-100.00,ESE,114,1.0,3.0,92,0.00,,,0.00,1.000000,,2013-07-21 11:43:00,
2013-07-21 06:52:00,57.0,55.0,-100.00,ESE,114,1.0,3.0,92,0.00,,,0.00,1.000000,,2013-07-21 11:52:00,
2013-07-21 07:01:00,57.0,55.0,-100.00,ESE,114,1.0,3.0,92,0.00,,,0.00,1.000000,,2013-07-21 12:01:00,
2013-07-21 07:32:00,59.0,56.0,-100.00,ESE,123,2.0,5.0,89,0.00,,,0.00,37.000000,,2013-07-21 12:32:00,
2013-07-21 07:43:00,59.0,56.0,-100.00,ESE,123,2.0,5.0,89,0.00,,,0.00,37.000000,,2013-07-21 12:43:00,
2013-07-21 07:53:00,59.0,56.0,-100.00,ESE,123,2.0,5.0,89,0.00,,,0.00,37.000000,,2013-07-21 12:53:00,
2013-07-21 08:01:00,59.0,56.0,-100.00,ESE,123,2.0,5.0,89,0.00,,,0.00,37.000000,,2013-07-21 13:01:00,
2013-07-21 08:33:00,63.0,55.0,-100.00,SE,138,4.0,7.0,75,0.00,,,0.00,224.000000,,2013-07-21 13:33:00,
2013-07-21 08:43:00,63.0,55.0,-100.00,SE,138,4.0,7.0,75,0.00,,,0.00,224.000000,,2013-07-21 13:43:00,
2013-07-21 08:53:00,63.0,55.0,-100.00,SE,138,4.0,7.0,75,0.00,,,0.00,224.000000,,2013-07-21 13:53:00,
2013-07-21 09:01:00,63.0,55.0,-100.00,SE,138,4.0,7.0,75,0.00,,,0.00,224.000000,,2013-07-21 14:01:00,
2013-07-21 09:32:00,66.0,54.0,-100.00,SE,132,5.0,9.0,65,0.00,,,0.00,346.000000,,2013-07-21 14:32:00,
2013-07-21 09:43:00,66.0,54.0,-100.00,SE,132,5.0,9.0,65,0.00,,,0.00,346.000000,,2013-07-21 14:43:00,
2013-07-21 09:53:00,66.0,54.0,-100.00,SE,132,5.0,9.0,65,0.00,,,0.00,346.000000,,2013-07-21 14:53:00,
2013-07-21 10:02:00,66.0,54.0,-100.00,SE,132,5.0,9.0,65,0.00,,,0.00,346.000000,,2013-07-21 15:02:00,
2013-07-21 10:32:00,68.0,53.0,-100.00,SE,143,5.0,11.0,59,0.00,,,0.00,545.000000,,2013-07-21 15:32:00,
2013-07-21 10:43:00,68.0,53.0,-100.00,SE,143,5.0,11.0,59,0.00,,,0.00,545.000000,,2013-07-21 15:43:00,
2013-07-21 10:53:00,68.0,53.0,-100.00,SE,143,5.0,11.0,59,0.00,,,0.00,545.000000,,2013-07-21 15:53:00,
2013-07-21 11:01:00,68.0,53.0,-100.00,SE,143,5.0,11.0,59,0.00,,,0.00,545.000000,,2013-07-21 16:01:00,
2013-07-21 11:32:00,71.0,54.0,-100.00,ESE,120,5.0,11.0,56,0.00,,,0.00,802.000000,,2013-07-21 16:32:00,
2013-07-21 11:43:00,71.0,54.0,-100.00,ESE,120,5.0,11.0,56,0.00,,,0.00,802.000000,,2013-07-21 16:43:00,
2013-07-21 11:52:00,71.0,54.0,-100.00,ESE,120,5.0,11.0,56,0.00,,,0.00,802.000000,,2013-07-21 16:52:00,
2013-07-21 12:02:00,71.0,54.0,-100.00,ESE,120,5.0,11.0,56,0.00,,,0.00,802.000000,,2013-07-21 17:02:00,
2013-07-21 12:33:00,73.0,54.0,-100.00,SSE,166,7.0,13.0,52,0.00,,,0.00,939.000000,,2013-07-21 17:33:00,
2013-07-21 12:43:00,73.0,54.0,-100.00,SSE,166,7.0,13.0,52,0.00,,,0.00,939.000000,,2013-07-21 17:43:00,
2013-07-21 12:53:00,73.0,54.0,-100.00,SSE,166,7.0,13.0,52,0.00,,,0.00,939.000000,,2013-07-21 17:53:00,
2013-07-21 13:01:00,73.0,54.0,-100.00,SSE,166,7.0,13.0,52,0.00,,,0.00,939.000000,,2013-07-21 18:01:00,
2013-07-21 13:32:00,76.0,57.0,-100.00,SE,140,5.0,13.0,52,0.00,,,0.00,976.000000,,2013-07-21 18:32:00,
2013-07-21 13:43:00,76.0,57.0,-100.00,SE,140,5.0,13.0,52,0.00,,,0.00,976.000000,,2013-07-21 18:43:00,
2013-07-21 13:52:00,76.0,57.0,-100.00,SE,140,5.0,13.0,52,0.00,,,0.00,976.000000,,2013-07-21 18:52:00,
2013-07-21 14:01:00,76.0,57.0,-100.00,SE,140,5.0,13.0,52,0.00,,,0.00,976.000000,,2013-07-21 19:01:00,
2013-07-21 14:32:00,76.0,58.0,-100.00,SE,135,5.0,11.0,53,0.00,,,0.00,787.000000,,2013-07-21 19:32:00,
2013-07-21 14:42:00,76.0,58.0,-100.00,SE,135,5.0,11.0,53,0.00,,,0.00,787.000000,,2013-07-21 19:42:00,
2013-07-21 14:52:00,76.0,58.0,-100.00,SE,135,5.0,11.0,53,0.00,,,0.00,787.000000,,2013-07-21 19:52:00,
2013-07-21 15:01:00,76.0,58.0,-100.00,SE,135,5.0,11.0,53,0.00,,,0.00,787.000000,,2013-07-21 20:01:00,
2013-07-21 15:32:00,79.0,59.0,-100.00,SSE,163,5.0,12.0,50,0.00,,,0.00,847.000000,,2013-07-21 20:32:00,
2013-07-21 15:43:00,79.0,59.0,-100.00,SSE,163,5.0,12.0,50,0.00,,,0.00,847.000000,,2013-07-21 20:43:00,
2013-07-21 15:52:00,79.0,59.0,-100.00,SSE,163,5.0,12.0,50,0.00,,,0.00,847.000000,,2013-07-21 20:52:00,
2013-07-21 16:01:00,79.0,59.0,-100.00,SSE,163,5.0,12.0,50,0.00,,,0.00,847.000000,,2013-07-21 21:01:00,
2013-07-21 16:32:00,78.0,60.0,-100.00,SSE,159,5.0,11.0,54,0.00,,,0.00,753.000000,,2013-07-21 21:32:00,
2013-07-21 16:43:00,78.0,60.0,-100.00,SSE,159,5.0,11.0,54,0.00,,,0.00,753.000000,,2013-07-21 21:43:00,
2013-07-21 16:52:00,78.0,60.0,-100.00,SSE,159,5.0,11.0,54,0.00,,,0.00,753.000000,,2013-07-21 21:52:00,
2013-07-21 17:01:00,78.0,60.0,-100.00,SSE,159,5.0,11.0,54,0.00,,,0.00,753.000000,,2013-07-21 22:01:00,
2013-07-21 17:32:00,78.0,60.0,-100.00,SSE,160,7.0,12.0,54,0.00,,,0.00,626.000000,,2013-07-21 22:32:00,
2013-07-21 17:43:00,78.0,60.0,-100.00,SSE,160,7.0,12.0,54,0.00,,,0.00,626.000000,,2013-07-21 22:43:00,
2013-07-21 17:52:00,78.0,60.0,-100.00,SSE,160,7.0,12.0,54,0.00,,,0.00,626.000000,,2013-07-21 22:52:00,
2013-07-21 18:02:00,78.0,60.0,-100.00,SSE,160,7.0,12.0,54,0.00,,,0.00,626.000000,,2013-07-21 23:02:00,
2013-07-21 18:32:00,78.0,61.0,-100.00,South,174,7.0,14.0,56,0.00,,,0.00,534.000000,,2013-07-21 23:32:00,
2013-07-21 18:43:00,78.0,61.0,-100.00,South,174,7.0,14.0,56,0.00,,,0.00,534.000000,,2013-07-21 23:43:00,
2013-07-21 18:53:00,78.0,61.0,-100.00,South,174,7.0,14.0,56,0.00,,,0.00,534.000000,,2013-07-21 23:53:00,
2013-07-21 19:01:00,78.0,61.0,-100.00,South,174,7.0,14.0,56,0.00,,,0.00,534.000000,,2013-07-22 00:01:00,
2013-07-21 19:32:00,77.0,62.0,-100.00,SSE,167,6.0,13.0,59,0.00,,,0.00,409.000000,,2013-07-22 00:32:00,
2013-07-21 19:42:00,77.0,62.0,-100.00,SSE,167,6.0,13.0,59,0.00,,,0.00,409.000000,,2013-07-22 00:42:00,
2013-07-21 19:53:00,77.0,62.0,-100.00,SSE,167,6.0,13.0,59,0.00,,,0.00,409.000000,,2013-07-22 00:53:00,
2013-07-21 20:02:00,77.0,62.0,-100.00,SSE,167,6.0,13.0,59,0.00,,,0.00,409.000000,,2013-07-22 01:02:00,
2013-07-21 20:32:00,74.0,62.0,-100.00,SSE,168,5.0,11.0,67,0.00,,,0.00,173.000000,,2013-07-22 01:32:00,
2013-07-21 20:42:00,74.0,62.0,-100.00,SSE,168,5.0,11.0,67,0.00,,,0.00,173.000000,,2013-07-22 01:42:00,
2013-07-21 20:52:00,74.0,62.0,-100.00,SSE,168,5.0,11.0,67,0.00,,,0.00,173.000000,,2013-07-22 01:52:00,
2013-07-21 21:02:00,74.0,62.0,-100.00,SSE,168,5.0,11.0,67,0.00,,,0.00,173.000000,,2013-07-22 02:02:00,
2013-07-21 21:32:00,71.0,63.0,-100.00,SSE,157,4.0,7.0,76,0.00,,,0.00,22.000000,,2013-07-22 02:32:00,
2013-07-21 21:43:00,71.0,63.0,-100.00,SSE,157,4.0,7.0,76,0.00,,,0.00,22.000000,,2013-07-22 02:43:00,
2013-07-21 21:52:00,71.0,63.0,-100.00,SSE,157,4.0,7.0,76,0.00,,,0.00,22.000000,,2013-07-22 02:52:00,
2013-07-21 22:01:00,71.0,63.0,-100.00,SSE,157,4.0,7.0,76,0.00,,,0.00,22.000000,,2013-07-22 03:01:00,
2013-07-21 22:33:00,69.0,63.0,-100.00,SSE,159,4.0,6.0,82,0.00,,,0.00,0.000000,,2013-07-22 03:33:00,
2013-07-21 22:43:00,69.0,63.0,-100.00,SSE,159,4.0,6.0,82,0.00,,,0.00,0.000000,,2013-07-22 03:43:00,
2013-07-21 22:53:00,69.0,63.0,-100.00,SSE,159,4.0,6.0,82,0.00,,,0.00,0.000000,,2013-07-22 03:53:00,
2013-07-21 23:01:00,69.0,63.0,-100.00,SSE,159,4.0,6.0,82,0.00,,,0.00,0.000000,,2013-07-22 04:01:00,
2013-07-21 23:33:00,69.0,64.0,-100.00,SSE,152,5.0,9.0,83,0.00,,,0.00,0.000000,,2013-07-22 04:33:00,
2013-07-21 23:43:00,69.0,64.0,-100.00,SSE,152,5.0,9.0,83,0.00,,,0.00,0.000000,,2013-07-22 04:43:00,